createdAt,value
2022-11-18T00:01:25.804Z,69.00
2022-11-18T00:03:53.650Z,68.30
2022-11-18T00:06:24.851Z,68.60
2022-11-18T00:08:55.107Z,69.10
2022-11-18T00:11:44.139Z,69.40
2022-11-18T00:14:20.825Z,70.00
2022-11-18T00:16:54.554Z,69.10
2022-11-18T00:19:25.264Z,68.80
2022-11-18T00:21:53.194Z,68.10
2022-11-18T00:24:21.463Z,68.30
2022-11-18T00:26:49.576Z,69.00
2022-11-18T00:29:17.455Z,68.40
2022-11-18T00:31:45.484Z,67.50
2022-11-18T00:34:15.909Z,66.90
2022-11-18T00:36:44.476Z,67.50
2022-11-18T00:39:13.363Z,66.70
2022-11-18T00:41:59.410Z,67.00
2022-11-18T00:44:27.274Z,66.90
2022-11-18T00:46:55.100Z,67.40
2022-11-18T00:49:22.977Z,66.60
2022-11-18T00:51:50.343Z,67.60
2022-11-18T00:54:17.982Z,67.50
2022-11-18T00:56:45.481Z,67.40
2022-11-18T00:59:13.052Z,67.30
2022-11-18T01:01:40.758Z,67.90
2022-11-18T01:04:08.291Z,66.80
2022-11-18T01:06:35.940Z,67.50
2022-11-18T01:09:03.488Z,67.80
2022-11-18T01:11:49.480Z,66.60
2022-11-18T01:14:17.063Z,67.50
2022-11-18T01:16:44.800Z,67.10
2022-11-18T01:19:12.631Z,66.30
2022-11-18T01:21:40.160Z,66.00
2022-11-18T01:24:07.807Z,66.70
2022-11-18T01:26:35.531Z,65.70
2022-11-18T01:29:03.038Z,66.60
2022-11-18T01:31:30.477Z,66.40
2022-11-18T01:33:58.007Z,65.70
2022-11-18T01:36:27.825Z,66.30
2022-11-18T01:38:56.261Z,66.20
2022-11-18T01:41:26.254Z,65.60
2022-11-18T01:44:00.194Z,65.60
2022-11-18T01:46:30.682Z,65.10
2022-11-18T01:48:58.390Z,65.30
2022-11-18T01:51:51.688Z,64.80
2022-11-18T01:54:26.760Z,64.10
2022-11-18T01:57:00.042Z,63.90
2022-11-18T01:59:33.744Z,63.80
2022-11-18T02:02:06.520Z,63.90
2022-11-18T02:04:34.995Z,64.90
2022-11-18T02:07:03.158Z,65.10
2022-11-18T02:09:30.973Z,65.00
2022-11-18T02:11:59.168Z,65.20
2022-11-18T02:14:33.602Z,66.30
2022-11-18T02:17:25.498Z,67.10
2022-11-18T02:20:01.854Z,67.90
2022-11-18T02:23:01.114Z,68.40
2022-11-18T02:25:47.142Z,68.00
2022-11-18T02:28:29.453Z,68.20
2022-11-18T02:31:15.533Z,68.50
2022-11-18T02:34:21.941Z,68.40
2022-11-18T02:37:12.512Z,68.90
2022-11-18T02:40:13.376Z,69.20
2022-11-18T02:42:43.899Z,69.30
2022-11-18T02:45:16.490Z,69.90
2022-11-18T02:47:47.478Z,69.60
2022-11-18T02:50:20.240Z,69.40
2022-11-18T02:52:53.330Z,70.20
2022-11-18T02:55:22.530Z,69.80
2022-11-18T02:57:52.177Z,69.90
2022-11-18T03:00:19.870Z,69.30
2022-11-18T03:02:50.334Z,69.90
2022-11-18T03:05:41.053Z,69.30
2022-11-18T03:08:15.659Z,68.80
2022-11-18T03:11:14.902Z,69.70
2022-11-18T03:14:04.027Z,69.70
2022-11-18T03:16:42.024Z,71.30
2022-11-18T03:19:30.229Z,71.90
2022-11-18T03:22:04.590Z,71.70
2022-11-18T03:24:35.579Z,72.00
2022-11-18T03:27:34.209Z,72.00
2022-11-18T03:30:12.725Z,72.30
2022-11-18T03:32:46.152Z,71.80
2022-11-18T03:35:24.421Z,72.40
2022-11-18T03:38:00.026Z,72.90
2022-11-18T03:40:31.670Z,72.90
2022-11-18T03:43:14.833Z,72.80
2022-11-18T03:45:50.046Z,72.70
2022-11-18T03:48:19.923Z,73.30
2022-11-18T03:50:55.721Z,73.70
2022-11-18T03:53:28.372Z,72.50
2022-11-18T03:56:01.509Z,72.40
2022-11-18T03:58:37.216Z,71.70
2022-11-18T04:01:17.296Z,71.50
2022-11-18T04:03:45.332Z,70.70
2022-11-18T04:06:36.235Z,71.30
2022-11-18T04:09:18.896Z,70.70
2022-11-18T04:12:02.963Z,70.20
2022-11-18T04:14:36.423Z,70.20
2022-11-18T04:17:20.169Z,70.90
2022-11-18T04:19:48.202Z,71.30
2022-11-18T04:22:16.236Z,70.90
2022-11-18T04:24:43.692Z,70.90
2022-11-18T04:27:11.724Z,71.70
2022-11-18T04:29:39.526Z,70.80
2022-11-18T04:32:07.667Z,71.00
2022-11-18T04:34:35.256Z,71.10
2022-11-18T04:37:03.130Z,70.60
2022-11-18T04:39:30.539Z,70.50
2022-11-18T04:41:58.205Z,69.70
2022-11-18T04:44:31.450Z,70.60
2022-11-18T04:47:00.695Z,69.90
2022-11-18T04:49:28.890Z,69.90
2022-11-18T04:51:57.688Z,69.00
2022-11-18T04:54:26.007Z,69.80
2022-11-18T04:56:54.603Z,70.10
2022-11-18T04:59:25.093Z,68.60
2022-11-18T05:01:53.498Z,67.80
2022-11-18T05:04:24.332Z,68.10
2022-11-18T05:06:52.303Z,68.80
2022-11-18T05:09:20.773Z,68.20
2022-11-18T05:12:07.577Z,68.20
2022-11-18T05:14:35.243Z,68.80
2022-11-18T05:17:04.405Z,68.40
2022-11-18T05:19:31.789Z,68.60
2022-11-18T05:21:59.570Z,68.60
2022-11-18T05:24:27.053Z,69.40
2022-11-18T05:26:55.327Z,67.80
2022-11-18T05:29:23.040Z,66.80
2022-11-18T05:31:51.157Z,66.20
2022-11-18T05:34:19.553Z,66.70
2022-11-18T05:36:47.084Z,67.40
2022-11-18T05:39:14.685Z,67.90
2022-11-18T05:42:00.679Z,67.60
2022-11-18T05:44:28.093Z,67.00
2022-11-18T05:46:55.646Z,66.90
2022-11-18T05:49:23.683Z,66.70
2022-11-18T05:51:51.163Z,67.10
2022-11-18T05:54:21.525Z,67.20
2022-11-18T05:56:49.281Z,67.60
2022-11-18T05:59:17.248Z,68.00
2022-11-18T06:02:04.488Z,68.40
2022-11-18T06:05:05.222Z,68.40
2022-11-18T06:07:46.841Z,68.80
2022-11-18T06:10:19.245Z,70.30
2022-11-18T06:12:50.254Z,70.70
2022-11-18T06:15:31.549Z,71.40
2022-11-18T06:18:02.454Z,72.80
2022-11-18T06:20:30.301Z,72.80
2022-11-18T06:22:59.171Z,73.20
2022-11-18T06:25:26.573Z,73.10
2022-11-18T06:27:58.008Z,73.20
2022-11-18T06:30:25.583Z,73.80
2022-11-18T06:32:53.055Z,73.70
2022-11-18T06:35:20.695Z,73.90
2022-11-18T06:37:48.293Z,74.40
2022-11-18T06:40:15.814Z,74.60
2022-11-18T06:43:02.017Z,75.30
2022-11-18T06:45:30.411Z,75.40
2022-11-18T06:48:01.471Z,75.30
2022-11-18T06:50:29.230Z,75.40
2022-11-18T06:52:57.504Z,74.90
2022-11-18T06:55:25.242Z,75.60
2022-11-18T06:57:53.759Z,75.40
2022-11-18T07:00:21.403Z,75.50
2022-11-18T07:02:48.976Z,75.30
2022-11-18T07:05:17.293Z,75.50
2022-11-18T07:07:45.189Z,75.10
2022-11-18T07:10:12.808Z,74.70
2022-11-18T07:12:40.085Z,74.40
2022-11-18T07:15:08.198Z,74.40
2022-11-18T07:17:35.738Z,74.10
2022-11-18T07:20:03.285Z,73.70
2022-11-18T07:22:30.689Z,74.00
2022-11-18T07:24:58.170Z,73.90
2022-11-18T07:27:25.639Z,73.80
2022-11-18T07:29:53.128Z,74.00
2022-11-18T07:32:20.526Z,73.80
2022-11-18T07:34:48.074Z,74.00
2022-11-18T07:37:15.545Z,74.20
2022-11-18T07:39:42.896Z,74.30
2022-11-18T07:42:10.808Z,74.50
2022-11-18T07:44:38.312Z,75.10
2022-11-18T07:47:05.772Z,75.60
2022-11-18T07:49:33.299Z,75.40
2022-11-18T07:52:00.646Z,75.80
2022-11-18T07:54:27.957Z,76.10
2022-11-18T07:56:55.486Z,75.90
2022-11-18T07:59:23.656Z,76.30
2022-11-18T08:01:51.567Z,76.20
2022-11-18T08:04:19.400Z,76.30
2022-11-18T08:06:47.205Z,76.20
2022-11-18T08:09:15.174Z,76.20
2022-11-18T08:11:43.315Z,76.10
2022-11-18T08:14:10.949Z,75.80
2022-11-18T08:16:38.784Z,76.10
2022-11-18T08:19:06.441Z,76.00
2022-11-18T08:21:34.237Z,75.80
2022-11-18T08:24:01.726Z,75.80
2022-11-18T08:26:29.911Z,75.70
2022-11-18T08:29:00.255Z,75.90
2022-11-18T08:31:31.236Z,75.50
2022-11-18T08:34:06.596Z,75.20
2022-11-18T08:36:36.908Z,75.30
2022-11-18T08:39:07.539Z,74.90
2022-11-18T08:41:40.749Z,74.80
2022-11-18T08:44:13.024Z,74.50
2022-11-18T08:46:40.745Z,74.10
2022-11-18T08:49:08.444Z,73.80
2022-11-18T08:51:36.024Z,73.90
2022-11-18T08:54:03.726Z,73.30
2022-11-18T08:56:31.290Z,73.70
2022-11-18T08:58:59.015Z,74.10
2022-11-18T09:01:27.014Z,73.40
2022-11-18T09:03:54.570Z,73.10
2022-11-18T09:06:25.430Z,72.90
2022-11-18T09:08:53.807Z,73.60
2022-11-18T09:11:24.529Z,73.90
2022-11-18T09:16:46.540Z,74.30
2022-11-18T09:19:45.710Z,75.00
2022-11-18T09:22:04.289Z,75.30
2022-11-18T09:24:32.089Z,75.50
2022-11-18T09:26:59.889Z,75.30
2022-11-18T09:29:28.185Z,75.10
2022-11-18T09:31:56.236Z,74.40
2022-11-18T09:34:24.335Z,75.40
2022-11-18T09:36:56.148Z,75.50
2022-11-18T09:39:25.631Z,75.40
2022-11-18T09:42:15.213Z,75.60
2022-11-18T09:44:51.770Z,76.60
2022-11-18T09:47:29.890Z,76.90
2022-11-18T09:50:26.748Z,75.80
2022-11-18T09:53:21.837Z,75.70
2022-11-18T09:55:50.859Z,72.80
2022-11-18T09:58:38.890Z,73.50
2022-11-18T10:01:17.778Z,74.70
2022-11-18T10:03:45.485Z,72.40
2022-11-18T10:06:24.543Z,72.70
2022-11-18T10:09:25.929Z,74.60
2022-11-18T10:12:16.212Z,73.90
2022-11-18T10:14:47.146Z,73.10
2022-11-18T10:17:49.266Z,72.80
2022-11-18T10:20:32.671Z,71.80
2022-11-18T10:23:23.379Z,72.20
2022-11-18T10:25:50.885Z,72.90
2022-11-18T10:28:25.570Z,71.50
2022-11-18T10:30:53.526Z,70.20
2022-11-18T10:33:26.026Z,70.10
2022-11-18T10:36:11.811Z,67.90
2022-11-18T10:38:39.566Z,67.90
2022-11-18T10:41:14.095Z,64.60
2022-11-18T10:43:56.403Z,59.30
2022-11-18T10:46:29.623Z,58.40
2022-11-18T10:49:09.295Z,56.70
2022-11-18T10:52:06.391Z,56.70
2022-11-18T10:54:34.225Z,55.80
2022-11-18T10:57:23.489Z,56.80
2022-11-18T10:59:56.895Z,56.80
2022-11-18T11:02:35.103Z,56.50
2022-11-18T11:05:15.769Z,56.60
2022-11-18T11:07:43.300Z,57.20
2022-11-18T11:10:14.219Z,55.40
2022-11-18T11:12:53.522Z,54.90
2022-11-18T11:15:36.716Z,55.40
2022-11-18T11:18:42.384Z,55.90
2022-11-18T11:21:19.019Z,55.80
2022-11-18T11:23:47.455Z,54.80
2022-11-18T11:29:50.080Z,56.00
2022-11-18T11:32:50.815Z,55.40
2022-11-18T11:35:23.871Z,54.30
2022-11-18T11:38:01.258Z,55.00
2022-11-18T11:40:57.094Z,55.80
2022-11-18T11:44:05.899Z,56.50
2022-11-18T11:47:18.463Z,55.20
2022-11-18T11:50:09.202Z,54.70
2022-11-18T11:53:04.055Z,55.30
2022-11-18T11:56:22.630Z,54.70
2022-11-18T11:59:08.181Z,55.00
2022-11-18T12:02:04.461Z,56.90
2022-11-18T12:04:46.814Z,56.40
2022-11-18T12:07:27.472Z,56.80
2022-11-18T12:10:21.753Z,56.90
2022-11-18T12:13:11.135Z,57.80
2022-11-18T12:16:04.059Z,57.80
2022-11-18T12:18:35.415Z,58.30
2022-11-18T12:21:03.605Z,58.20
2022-11-18T12:23:36.981Z,58.20
2022-11-18T12:26:08.894Z,59.00
2022-11-18T12:28:43.980Z,61.30
2022-11-18T12:31:20.895Z,61.20
2022-11-18T12:33:54.860Z,61.10
2022-11-18T12:36:40.038Z,61.90
2022-11-18T12:39:26.144Z,62.00
2022-11-18T12:42:17.414Z,62.30
2022-11-18T12:44:50.204Z,61.70
2022-11-18T12:47:42.306Z,63.10
2022-11-18T12:50:12.961Z,62.70
2022-11-18T12:52:40.530Z,62.60
2022-11-18T12:55:24.723Z,62.50
2022-11-18T12:57:52.492Z,63.00
2022-11-18T13:00:26.218Z,63.70
2022-11-18T13:02:56.170Z,62.90
2022-11-18T13:05:26.511Z,63.80
2022-11-18T13:08:16.250Z,63.20
2022-11-18T13:10:55.898Z,65.00
2022-11-18T13:13:33.864Z,65.30
2022-11-18T13:16:43.668Z,65.00
2022-11-18T13:19:25.375Z,66.10
2022-11-18T13:22:16.107Z,66.30
2022-11-18T13:24:46.375Z,66.20
2022-11-18T13:27:49.779Z,67.10
2022-11-18T13:30:18.618Z,67.90
2022-11-18T13:32:48.103Z,67.70
2022-11-18T13:35:19.694Z,68.20
2022-11-18T13:37:55.905Z,68.40
2022-11-18T13:40:29.610Z,68.50
2022-11-18T13:42:57.178Z,68.80
2022-11-18T13:45:28.656Z,68.70
2022-11-18T13:47:59.960Z,68.90
2022-11-18T13:50:41.330Z,69.30
2022-11-18T13:53:33.040Z,69.10
2022-11-18T13:56:04.499Z,69.90
2022-11-18T14:01:39.540Z,70.50
2022-11-18T14:04:27.738Z,71.20
2022-11-18T14:07:37.489Z,70.90
2022-11-18T14:10:08.968Z,71.60
2022-11-18T14:12:37.699Z,71.80
2022-11-18T14:15:22.729Z,72.30
2022-11-18T14:18:01.364Z,72.80
2022-11-18T14:20:31.779Z,73.50
2022-11-18T14:23:03.675Z,74.30
2022-11-18T14:25:34.805Z,74.30
2022-11-18T14:28:28.826Z,74.70
2022-11-18T14:31:00.426Z,75.00
2022-11-18T14:33:29.921Z,75.30
2022-11-18T14:36:11.215Z,75.50
2022-11-18T14:41:48.368Z,75.70
2022-11-18T14:44:17.677Z,75.80
2022-11-18T14:46:48.927Z,75.80
2022-11-18T14:49:19.933Z,76.10
2022-11-18T14:51:49.377Z,76.00
2022-11-18T14:54:25.489Z,76.00
2022-11-18T14:56:57.339Z,75.80
2022-11-18T14:59:25.339Z,76.00
2022-11-18T15:01:53.090Z,75.80
2022-11-18T15:04:22.438Z,76.20
2022-11-18T15:06:50.452Z,76.00
2022-11-18T15:09:18.142Z,76.10
2022-11-18T15:11:47.112Z,76.60
2022-11-18T15:14:14.661Z,77.10
2022-11-18T15:16:42.956Z,76.50
2022-11-18T15:19:15.771Z,76.70
2022-11-18T15:21:44.376Z,77.10
2022-11-18T15:24:11.836Z,77.40
2022-11-18T15:26:46.048Z,77.10
2022-11-18T15:29:26.962Z,77.30
2022-11-18T15:31:57.170Z,77.00
2022-11-18T15:34:24.888Z,77.10
2022-11-18T15:36:52.879Z,77.40
2022-11-18T15:39:20.380Z,77.20
2022-11-18T15:41:47.858Z,76.50
2022-11-18T15:44:16.622Z,77.20
2022-11-18T15:46:48.279Z,76.20
2022-11-18T15:49:18.001Z,77.10
2022-11-18T15:51:45.829Z,76.50
2022-11-18T15:54:13.829Z,77.20
2022-11-18T15:56:42.151Z,77.10
2022-11-18T15:59:14.357Z,76.60
2022-11-18T16:01:46.999Z,76.60
2022-11-18T16:04:17.025Z,77.00
2022-11-18T16:06:45.119Z,76.90
2022-11-18T16:09:14.195Z,76.90
2022-11-18T16:12:00.846Z,77.00
2022-11-18T16:14:28.612Z,76.80
2022-11-18T16:16:57.634Z,76.80
2022-11-18T16:19:27.872Z,79.60
2022-11-18T16:21:57.379Z,77.60
2022-11-18T16:24:30.441Z,77.30
2022-11-18T16:26:58.716Z,76.80
2022-11-18T16:29:26.236Z,76.80
2022-11-18T16:31:55.148Z,77.20
2022-11-18T16:34:27.775Z,77.10
2022-11-18T16:36:57.665Z,77.20
2022-11-18T16:39:27.525Z,76.50
2022-11-18T16:42:02.151Z,76.10
2022-11-18T16:44:34.190Z,76.10
2022-11-18T16:47:01.670Z,75.90
2022-11-18T16:49:29.289Z,76.10
2022-11-18T16:51:57.834Z,76.20
2022-11-18T16:54:29.678Z,75.90
2022-11-18T16:56:58.906Z,75.80
2022-11-18T16:59:30.942Z,75.70
2022-11-18T17:02:00.983Z,76.00
2022-11-18T17:04:30.187Z,75.80
2022-11-18T17:07:01.128Z,76.00
2022-11-18T17:09:28.792Z,75.80
2022-11-18T17:11:57.323Z,75.20
2022-11-18T17:14:25.883Z,75.00
2022-11-18T17:16:53.907Z,74.80
2022-11-18T17:19:23.379Z,74.00
2022-11-18T17:21:52.164Z,74.80
2022-11-18T17:24:22.538Z,74.90
2022-11-18T17:26:51.218Z,75.00
2022-11-18T17:29:19.111Z,74.60
2022-11-18T17:31:47.034Z,74.00
2022-11-18T17:34:16.335Z,73.90
2022-11-18T17:36:44.400Z,75.20
2022-11-18T17:39:13.691Z,75.90
2022-11-18T17:42:00.023Z,76.60
2022-11-18T17:44:29.511Z,76.40
2022-11-18T17:46:57.011Z,76.50
2022-11-18T17:49:25.382Z,77.00
2022-11-18T17:51:52.894Z,77.20
2022-11-18T17:54:21.646Z,78.00
2022-11-18T17:56:52.689Z,78.30
2022-11-18T17:59:21.320Z,79.20
2022-11-18T18:01:54.131Z,80.00
2022-11-18T18:04:26.391Z,80.10
2022-11-18T18:06:55.211Z,80.40
2022-11-18T18:09:28.824Z,80.80
2022-11-18T18:11:59.248Z,80.80
2022-11-18T18:14:26.777Z,81.20
2022-11-18T18:16:54.515Z,81.70
2022-11-18T18:19:23.930Z,81.90
2022-11-18T18:21:51.729Z,81.90
2022-11-18T18:24:21.422Z,82.00
2022-11-18T18:26:49.539Z,82.50
2022-11-18T18:29:17.192Z,83.00
2022-11-18T18:31:44.768Z,83.30
2022-11-18T18:34:12.381Z,83.70
2022-11-18T18:36:40.001Z,83.90
2022-11-18T18:39:07.644Z,83.90
2022-11-18T18:41:35.437Z,83.80
2022-11-18T18:44:02.988Z,85.50
2022-11-18T18:46:33.853Z,84.10
2022-11-18T18:49:14.617Z,83.80
2022-11-18T18:51:44.994Z,83.70
2022-11-18T18:54:14.590Z,84.40
2022-11-18T18:56:43.643Z,85.30
2022-11-18T18:59:12.638Z,84.60
2022-11-18T19:01:40.989Z,84.60
2022-11-18T19:04:11.979Z,84.50
2022-11-18T19:06:59.718Z,84.90
2022-11-18T19:09:28.173Z,85.10
2022-11-18T19:12:14.965Z,84.50
2022-11-18T19:14:42.756Z,84.60
2022-11-18T19:17:13.003Z,84.90
2022-11-18T19:20:02.415Z,85.10
2022-11-18T19:22:33.320Z,84.30
2022-11-18T19:25:01.953Z,84.10
2022-11-18T19:27:30.593Z,84.30
2022-11-18T19:29:59.408Z,83.40
2022-11-18T19:32:27.401Z,84.20
2022-11-18T19:34:55.956Z,84.50
2022-11-18T19:37:24.120Z,84.50
2022-11-18T19:39:51.571Z,84.30
2022-11-18T19:42:18.936Z,84.10
2022-11-18T19:44:49.628Z,84.60
2022-11-18T19:47:17.875Z,84.50
2022-11-18T19:49:45.511Z,83.90
2022-11-18T19:52:13.051Z,83.50
2022-11-18T19:54:41.547Z,83.80
2022-11-18T19:57:09.482Z,84.10
2022-11-18T19:59:37.365Z,84.20
2022-11-18T20:02:05.028Z,84.30
2022-11-18T20:04:32.639Z,84.20
2022-11-18T20:07:00.224Z,84.20
2022-11-18T20:09:27.897Z,84.40
2022-11-18T20:11:55.604Z,84.60
2022-11-18T20:14:23.609Z,84.40
2022-11-18T20:16:52.185Z,84.30
2022-11-18T20:19:19.885Z,84.60
2022-11-18T20:21:49.162Z,85.10
2022-11-18T20:24:18.645Z,85.30
2022-11-18T20:26:46.593Z,85.00
2022-11-18T20:29:14.280Z,85.40
2022-11-18T20:31:42.365Z,85.40
2022-11-18T20:34:14.707Z,85.50
2022-11-18T20:36:42.645Z,85.20
2022-11-18T20:39:15.966Z,85.30
2022-11-18T20:42:04.547Z,85.10
2022-11-18T20:44:32.096Z,85.20
2022-11-18T20:46:59.718Z,85.50
2022-11-18T20:49:27.279Z,85.60
2022-11-18T20:51:54.777Z,85.30
2022-11-18T20:54:22.244Z,85.30
2022-11-18T20:56:49.810Z,85.20
2022-11-18T20:59:17.816Z,85.40
2022-11-18T21:01:45.697Z,85.60
2022-11-18T21:04:13.174Z,86.00
2022-11-18T21:06:40.762Z,85.80
2022-11-18T21:09:08.661Z,85.70
2022-11-18T21:11:37.236Z,85.70
2022-11-18T21:14:25.074Z,86.00
2022-11-18T21:17:00.893Z,85.90
2022-11-18T21:19:29.364Z,86.00
2022-11-18T21:21:57.727Z,86.00
2022-11-18T21:24:29.336Z,86.00
2022-11-18T21:26:58.203Z,86.30
2022-11-18T21:29:27.315Z,86.20
2022-11-18T21:31:55.691Z,85.90
2022-11-18T21:34:23.346Z,85.70
2022-11-18T21:36:54.639Z,85.90
2022-11-18T21:39:26.355Z,85.90
2022-11-18T21:41:56.609Z,85.80
2022-11-18T21:44:25.150Z,85.90
2022-11-18T21:46:52.730Z,85.60
2022-11-18T21:49:20.365Z,85.50
2022-11-18T21:51:48.058Z,85.70
2022-11-18T21:54:16.217Z,85.20
2022-11-18T21:56:43.826Z,85.30
2022-11-18T21:59:11.315Z,85.10
2022-11-18T22:01:38.819Z,85.30
2022-11-18T22:04:06.411Z,85.50
2022-11-18T22:06:35.518Z,85.60
2022-11-18T22:09:04.410Z,85.80
2022-11-18T22:11:31.926Z,85.10
2022-11-18T22:13:59.452Z,85.40
2022-11-18T22:16:27.886Z,85.60
2022-11-18T22:19:01.164Z,85.80
2022-11-18T22:21:30.558Z,85.60
2022-11-18T22:24:02.493Z,85.30
2022-11-18T22:26:30.068Z,85.50
2022-11-18T22:28:58.722Z,85.60
2022-11-18T22:31:28.250Z,85.70
2022-11-18T22:33:56.883Z,85.00
2022-11-18T22:36:26.352Z,85.40
2022-11-18T22:38:54.888Z,85.80
2022-11-18T22:41:43.785Z,85.50
2022-11-18T22:44:14.066Z,85.30
2022-11-18T22:46:44.016Z,85.40
2022-11-18T22:49:12.768Z,85.50
2022-11-18T22:51:41.137Z,85.50
2022-11-18T22:56:57.440Z,85.70
2022-11-18T22:59:25.547Z,85.80
2022-11-18T23:01:53.884Z,85.50
2022-11-18T23:04:21.411Z,85.10
2022-11-18T23:06:49.923Z,85.00
2022-11-18T23:09:17.839Z,85.30
2022-11-18T23:12:04.461Z,85.60
2022-11-18T23:14:31.873Z,85.70
2022-11-18T23:17:00.645Z,85.70
2022-11-18T23:19:28.206Z,85.70
2022-11-18T23:21:55.890Z,85.60
2022-11-18T23:24:23.487Z,85.60
2022-11-18T23:26:50.909Z,85.60
2022-11-18T23:29:19.027Z,85.50
2022-11-18T23:31:46.884Z,85.80
2022-11-18T23:34:16.115Z,85.80
2022-11-18T23:36:44.176Z,86.00
2022-11-18T23:39:12.508Z,86.00
2022-11-18T23:41:40.805Z,85.90
2022-11-18T23:44:08.628Z,85.90
2022-11-18T23:46:36.379Z,85.80
2022-11-18T23:49:07.664Z,85.90
2022-11-18T23:51:35.287Z,86.10
2022-11-18T23:54:02.846Z,85.90
2022-11-18T23:56:32.787Z,85.90
2022-11-18T23:59:04.953Z,86.20
